Time;durP1;ratioP1;P1;durP2;ratioP2;P2;SDS_P1;SDS_P2;PMS_P1;PMS_P2;Temp;Humidity;BMP_temperature;BMP_pressure;BME280_temperature;BME280_humidity;BME280_pressure;Samples;Min_cycle;Max_cycle;Signal;HPM_P1;HPM_P2
2022/06/11 00:02:03;;;;;;;0.90;0.90;;;;;;;15.18;85.08;96094.66;4364659;32;20201;-61
2022/06/11 00:04:38;;;;;;;0.90;0.90;;;;;;;15.25;84.74;96092.38;4354535;32;20180;-61
2022/06/11 00:07:09;;;;;;;2.00;1.47;;;;;;;15.31;84.23;96090.37;4331067;32;20239;-61
2022/06/11 00:09:35;;;;;;;0.93;0.93;;;;;;;15.25;84.37;96091.56;4354109;32;20245;-62
2022/06/11 00:12:03;;;;;;;0.67;0.67;;;;;;;15.12;84.96;96095.88;4358301;32;20197;-61
2022/06/11 00:14:31;;;;;;;1.20;1.20;;;;;;;15.05;85.04;96093.63;4348612;32;20199;-61
2022/06/11 00:17:00;;;;;;;0.70;0.70;;;;;;;14.93;85.44;96096.06;4347742;32;20253;-61
2022/06/11 00:19:27;;;;;;;4.40;1.13;;;;;;;14.99;85.44;96089.47;4368403;32;20287;-61
2022/06/11 00:21:53;;;;;;;0.93;0.93;;;;;;;14.65;86.87;96089.19;4353956;32;20258;-61
2022/06/11 00:24:20;;;;;;;1.17;1.17;;;;;;;14.81;86.53;96081.63;4341394;32;20189;-61
2022/06/11 00:26:46;;;;;;;0.83;0.83;;;;;;;14.83;86.36;96090.13;4354280;32;20213;-61
2022/06/11 00:29:13;;;;;;;1.40;1.30;;;;;;;14.76;86.56;96094.00;4355138;32;20204;-61
2022/06/11 00:31:40;;;;;;;0.93;0.93;;;;;;;14.74;86.87;96090.84;4351305;32;20193;-61
2022/06/11 00:34:05;;;;;;;1.07;1.07;;;;;;;14.81;86.26;96087.75;4361678;32;20202;-62
2022/06/11 00:36:32;;;;;;;0.60;0.60;;;;;;;14.81;86.16;96087.75;4357518;32;20193;-61
2022/06/11 00:38:59;;;;;;;1.23;1.23;;;;;;;14.88;85.58;96082.81;4359192;32;20205;-61
2022/06/11 00:41:28;;;;;;;0.87;0.87;;;;;;;14.88;85.98;96076.66;4362272;32;20287;-61
2022/06/11 00:43:54;;;;;;;1.30;1.20;;;;;;;14.88;85.88;96077.47;4358027;32;20263;-61
2022/06/11 00:46:41;;;;;;;1.10;1.10;;;;;;;14.82;86.04;96072.53;4362054;32;20227;-61
2022/06/11 00:49:18;;;;;;;1.13;0.83;;;;;;;14.59;86.70;96077.03;4353100;32;20189;-61
2022/06/11 00:51:45;;;;;;;1.10;1.10;;;;;;;14.71;86.62;96074.63;4345396;32;20323;-61
2022/06/11 00:54:17;;;;;;;0.93;0.93;;;;;;;14.64;87.09;96071.56;4353790;32;20181;-61
2022/06/11 00:56:52;;;;;;;0.60;0.60;;;;;;;14.62;86.83;96074.53;4358041;32;20197;-61
2022/06/11 00:59:33;;;;;;;0.90;0.90;;;;;;;14.55;87.47;96076.06;4357077;32;20251;-61
2022/06/11 01:02:00;;;;;;;2.17;1.30;;;;;;;14.50;88.04;96070.81;4354095;32;20225;-61
2022/06/11 01:04:53;;;;;;;0.80;0.80;;;;;;;14.65;87.62;96071.28;4361656;32;20189;-61
2022/06/11 01:07:39;;;;;;;1.43;1.33;;;;;;;14.49;87.69;96067.34;4361914;32;20205;-61
2022/06/11 01:10:41;;;;;;;1.37;1.23;;;;;;;14.42;88.12;96070.44;4363421;32;20267;-62
2022/06/11 01:13:49;;;;;;;1.73;1.13;;;;;;;14.52;87.74;96060.63;4306435;33;20197;-62
2022/06/11 01:16:34;;;;;;;0.80;0.80;;;;;;;14.52;87.67;96060.63;4288694;33;20249;-61
2022/06/11 01:19:19;;;;;;;0.80;0.80;;;;;;;14.62;87.22;96055.06;4313994;33;20216;-61
2022/06/11 01:21:56;;;;;;;0.87;0.87;;;;;;;14.51;87.66;96059.06;4302018;33;20206;-61
2022/06/11 01:24:52;;;;;;;0.77;0.77;;;;;;;14.53;87.69;96054.22;4312888;33;20274;-61
2022/06/11 01:27:48;;;;;;;1.23;1.23;;;;;;;14.57;87.36;96055.94;4312921;33;20200;-61
2022/06/11 01:30:25;;;;;;;0.77;0.77;;;;;;;14.50;88.12;96060.16;4367933;32;20204;-61
2022/06/11 01:33:12;;;;;;;0.60;0.60;;;;;;;14.57;87.46;96055.16;4358859;32;20181;-61
2022/06/11 01:35:53;;;;;;;1.40;1.40;;;;;;;14.57;87.37;96055.16;4359365;32;20185;-61
2022/06/11 01:38:31;;;;;;;0.90;0.90;;;;;;;14.42;87.65;96053.63;4353913;32;20207;-61
2022/06/11 01:41:22;;;;;;;1.17;1.13;;;;;;;14.49;87.65;96047.88;4345579;32;20185;-61
2022/06/11 01:43:51;;;;;;;0.73;0.73;;;;;;;14.58;87.55;96052.19;4341510;32;20223;-61
2022/06/11 01:46:26;;;;;;;1.13;1.13;;;;;;;14.55;87.43;96050.12;4371057;32;20231;-61
2022/06/11 01:49:22;;;;;;;0.93;0.93;;;;;;;14.54;87.30;96055.78;4346956;32;20195;-61
2022/06/11 01:52:02;;;;;;;1.67;1.57;;;;;;;14.48;88.21;96054.31;4325590;32;20212;-61
2022/06/11 01:54:33;;;;;;;0.83;0.83;;;;;;;14.53;87.59;96052.31;4350378;32;20205;-61
2022/06/11 01:57:26;;;;;;;1.10;1.00;;;;;;;14.52;87.94;96044.63;4331404;32;20212;-61
2022/06/11 02:00:14;;;;;;;13.40;1.30;;;;;;;14.53;87.62;96051.53;4341709;32;20193;-61
2022/06/11 02:02:46;;;;;;;0.70;0.70;;;;;;;14.39;88.49;96048.84;4329544;32;20231;-61
2022/06/11 02:05:26;;;;;;;0.80;0.80;;;;;;;14.36;89.01;96055.56;4345415;32;20194;-61
2022/06/11 02:08:18;;;;;;;7.93;1.63;;;;;;;14.26;89.19;96055.78;4342252;32;20185;-61
2022/06/11 02:11:11;;;;;;;0.90;0.90;;;;;;;14.24;89.70;96057.16;4333510;32;20234;-61
2022/06/11 02:14:13;;;;;;;1.20;0.80;;;;;;;14.23;89.39;96058.25;4332259;32;20219;-61
2022/06/11 02:17:05;;;;;;;0.93;0.93;;;;;;;14.34;89.01;96051.63;4343052;32;20212;-61
2022/06/11 02:19:43;;;;;;;0.87;0.80;;;;;;;14.33;88.86;96061.53;4328142;32;20260;-61
2022/06/11 02:22:14;;;;;;;0.77;0.77;;;;;;;14.19;89.20;96051.94;4329046;32;20223;-61
2022/06/11 02:24:49;;;;;;;1.43;1.33;;;;;;;14.16;89.49;96053.31;4322828;32;20202;-61
2022/06/11 02:27:22;;;;;;;1.27;1.17;;;;;;;14.15;89.76;96056.28;4344577;32;20215;-61
2022/06/11 02:29:51;;;;;;;1.23;1.23;;;;;;;14.05;90.14;96057.28;4331794;32;20216;-61
2022/06/11 02:32:20;;;;;;;0.90;0.90;;;;;;;14.14;90.02;96062.69;4343188;32;20193;-61
2022/06/11 02:34:53;;;;;;;1.23;0.93;;;;;;;14.12;89.92;96070.22;4332490;32;20244;-61
2022/06/11 02:37:28;;;;;;;1.17;1.17;;;;;;;13.99;90.35;96067.25;4343229;32;20219;-61
2022/06/11 02:39:59;;;;;;;0.70;0.70;;;;;;;14.03;90.45;96064.78;4343957;32;20252;-61
2022/06/11 02:42:26;;;;;;;0.80;0.80;;;;;;;14.06;90.02;96069.53;4343098;32;20348;-61
2022/06/11 02:44:53;;;;;;;0.67;0.67;;;;;;;14.13;89.99;96071.81;4342714;32;20251;-61
2022/06/11 02:47:21;;;;;;;0.80;0.80;;;;;;;14.13;90.04;96072.59;4343721;32;20276;-61
2022/06/11 02:49:48;;;;;;;0.93;0.93;;;;;;;14.04;90.30;96074.38;4343900;32;20253;-61
2022/06/11 02:52:21;;;;;;;1.33;1.30;;;;;;;14.02;90.62;96077.34;4341495;32;20196;-61
2022/06/11 02:54:49;;;;;;;0.97;0.97;;;;;;;14.04;90.45;96074.38;4330672;32;20205;-61
2022/06/11 02:57:29;;;;;;;0.87;0.87;;;;;;;14.06;90.19;96077.53;4329881;32;20231;-61
2022/06/11 02:59:56;;;;;;;1.27;1.20;;;;;;;14.00;90.34;96084.06;4330443;32;20268;-61
2022/06/11 03:02:24;;;;;;;1.00;1.00;;;;;;;14.02;90.33;96082.66;4330169;32;20189;-61
2022/06/11 03:04:51;;;;;;;1.53;1.37;;;;;;;14.05;90.45;96086.62;4330555;32;20206;-61
2022/06/11 03:07:19;;;;;;;0.47;0.47;;;;;;;14.07;90.13;96084.47;4344872;32;20189;-61
2022/06/11 03:09:46;;;;;;;1.20;1.03;;;;;;;14.04;89.92;96087.72;4343608;32;20212;-61
2022/06/11 03:12:13;;;;;;;0.90;0.90;;;;;;;14.08;90.10;96086.03;4342082;32;20237;-61
2022/06/11 03:14:41;;;;;;;2.73;1.40;;;;;;;13.92;90.50;96092.75;4343128;32;20239;-61
2022/06/11 03:17:08;;;;;;;1.20;1.20;;;;;;;13.99;90.58;96093.13;4329594;32;20224;-61
2022/06/11 03:19:35;;;;;;;0.80;0.80;;;;;;;13.94;90.51;96095.88;4339838;32;20204;-61
2022/06/11 03:22:02;;;;;;;1.00;1.00;;;;;;;13.93;90.44;96096.97;4358171;32;20193;-61
2022/06/11 03:24:28;;;;;;;0.77;0.77;;;;;;;13.97;90.52;96093.44;4333420;32;20201;-61
2022/06/11 03:26:56;;;;;;;0.90;0.90;;;;;;;14.03;89.77;96096.81;4330506;32;20208;-61
2022/06/11 03:29:23;;;;;;;0.90;0.90;;;;;;;14.02;89.80;96096.00;4344125;32;20215;-61
2022/06/11 03:31:49;;;;;;;0.70;0.70;;;;;;;13.88;90.22;96105.09;4344181;32;20256;-61
2022/06/11 03:34:16;;;;;;;0.80;0.80;;;;;;;13.90;90.34;96100.25;4330494;32;20236;-61
2022/06/11 03:36:43;;;;;;;1.03;1.03;;;;;;;13.87;90.19;96095.50;4330482;32;20293;-61
2022/06/11 03:39:09;;;;;;;1.27;1.27;;;;;;;13.83;90.53;96097.19;4330091;32;20226;-61
2022/06/11 03:41:35;;;;;;;2.40;1.00;;;;;;;13.82;90.96;96103.59;4331083;32;20197;-62
2022/06/11 03:44:02;;;;;;;0.50;0.50;;;;;;;13.81;91.24;96102.00;4345391;32;20213;-61
2022/06/11 03:46:29;;;;;;;0.80;0.80;;;;;;;13.89;91.06;96102.12;4330940;33;20220;-61
2022/06/11 03:48:55;;;;;;;0.83;0.83;;;;;;;13.96;90.38;96104.41;4346798;32;20311;-61
2022/06/11 03:51:22;;;;;;;0.83;0.83;;;;;;;14.03;90.16;96110.94;4340267;32;20193;-61
2022/06/11 03:53:47;;;;;;;0.67;0.67;;;;;;;13.91;90.21;96113.31;4343253;32;20185;-61
2022/06/11 03:56:14;;;;;;;1.00;1.00;;;;;;;13.98;90.34;96123.56;4354827;32;20215;-61
2022/06/11 03:58:41;;;;;;;1.90;0.83;;;;;;;14.00;90.37;96121.41;4357369;32;20247;-61
2022/06/11 04:01:16;;;;;;;1.07;0.83;;;;;;;13.87;90.55;96116.84;4338563;32;20188;-61
2022/06/11 04:03:57;;;;;;;0.67;0.67;;;;;;;13.82;90.97;96120.38;4345384;32;20192;-61
2022/06/11 04:06:27;;;;;;;0.80;0.80;;;;;;;13.87;91.01;96122.19;4351583;32;20257;-61
2022/06/11 04:08:53;;;;;;;1.23;1.23;;;;;;;13.82;90.92;96120.38;4342695;33;20261;-61
2022/06/11 04:11:20;;;;;;;1.00;1.00;;;;;;;13.79;90.98;96126.31;4335423;32;20197;-61
2022/06/11 04:13:48;;;;;;;0.97;0.97;;;;;;;13.78;90.96;96130.06;4331439;33;20405;-61
2022/06/11 04:16:27;;;;;;;0.60;0.60;;;;;;;13.85;91.02;96125.12;4353020;32;20235;-61
2022/06/11 04:18:56;;;;;;;0.70;0.70;;;;;;;13.88;90.76;96129.87;4345342;32;20296;-61
2022/06/11 04:21:25;;;;;;;0.87;0.87;;;;;;;13.80;90.57;96133.22;4342543;33;20265;-61
2022/06/11 04:23:55;;;;;;;0.90;0.90;;;;;;;13.83;90.69;96132.62;4353035;32;20204;-61
2022/06/11 04:26:27;;;;;;;0.70;0.70;;;;;;;13.85;90.92;96127.00;4356886;32;20205;-61
2022/06/11 04:28:55;;;;;;;0.43;0.43;;;;;;;13.88;90.47;96137.09;4345065;32;20211;-61
2022/06/11 04:31:23;;;;;;;0.60;0.60;;;;;;;13.99;90.35;96141.94;4343757;33;20252;-61
2022/06/11 04:33:50;;;;;;;1.00;1.00;;;;;;;13.92;90.60;96141.56;4343392;33;20193;-61
2022/06/11 04:36:19;;;;;;;0.63;0.63;;;;;;;13.93;90.65;96139.66;4344187;32;20267;-61
2022/06/11 04:38:46;;;;;;;0.60;0.60;;;;;;;14.09;90.03;96132.97;4333653;32;20240;-61
2022/06/11 04:41:13;;;;;;;1.20;0.97;;;;;;;14.08;90.31;96134.06;4356988;32;20185;-61
2022/06/11 04:43:39;;;;;;;0.80;0.80;;;;;;;14.03;90.14;96144.81;4346514;32;20204;-61
2022/06/11 04:46:08;;;;;;;1.33;0.93;;;;;;;14.04;89.96;96147.19;4354495;32;20194;-61
2022/06/11 04:48:35;;;;;;;2.07;1.97;;;;;;;14.16;89.92;96145.91;4358986;32;20189;-61
2022/06/11 04:51:23;;;;;;;0.70;0.70;;;;;;;14.26;89.88;96143.87;4360102;32;20196;-61
2022/06/11 04:53:50;;;;;;;1.03;1.03;;;;;;;14.16;89.75;96146.72;4361448;32;20230;-61
2022/06/11 04:56:21;;;;;;;0.40;0.40;;;;;;;14.08;89.97;96147.41;4344383;32;20253;-61
2022/06/11 04:58:48;;;;;;;1.03;1.03;;;;;;;14.21;89.79;96149.28;4345633;32;20193;-61
2022/06/11 05:01:15;;;;;;;0.87;0.70;;;;;;;14.15;90.22;96149.66;4358648;32;20183;-61
2022/06/11 05:03:41;;;;;;;1.23;1.23;;;;;;;14.28;90.03;96144.37;4362216;32;20196;-61
2022/06/11 05:06:10;;;;;;;0.73;0.73;;;;;;;14.23;89.80;96147.13;4361459;32;20216;-61
2022/06/11 05:08:36;;;;;;;0.70;0.70;;;;;;;14.24;90.26;96158.59;4361205;32;20189;-61
2022/06/11 05:11:07;;;;;;;0.90;0.90;;;;;;;14.22;90.00;96150.88;4363012;32;20249;-61
2022/06/11 05:13:35;;;;;;;1.87;1.77;;;;;;;14.48;89.71;96156.56;4333779;32;20189;-61
2022/06/11 05:16:01;;;;;;;0.67;0.67;;;;;;;14.53;89.48;96153.00;4358970;32;20211;-61
2022/06/11 05:18:32;;;;;;;0.70;0.70;;;;;;;14.60;89.53;96159.50;4364763;32;20219;-61
2022/06/11 05:21:00;;;;;;;0.67;0.67;;;;;;;14.70;89.03;96155.84;4363472;32;20242;-61
2022/06/11 05:23:25;;;;;;;1.30;1.27;;;;;;;14.70;89.51;96151.31;4353269;32;21518;-61
2022/06/11 05:25:50;;;;;;;0.50;0.50;;;;;;;14.56;89.30;96157.72;4348851;32;20197;-61
2022/06/11 05:28:28;;;;;;;0.73;0.73;;;;;;;14.63;89.16;96160.78;4361069;32;20216;-61
2022/06/11 05:30:54;;;;;;;0.57;0.57;;;;;;;14.80;89.05;96158.31;4334368;32;20196;-61
2022/06/11 05:33:22;;;;;;;0.60;0.60;;;;;;;14.80;88.51;96166.31;4359979;32;20219;-61
2022/06/11 05:35:48;;;;;;;1.03;0.93;;;;;;;14.94;88.50;96159.09;4359374;32;20243;-61
2022/06/11 05:38:20;;;;;;;0.83;0.83;;;;;;;15.01;88.94;96161.34;4360548;32;20202;-61
2022/06/11 05:40:48;;;;;;;0.67;0.67;;;;;;;15.08;89.17;96164.41;4346890;32;20284;-61
2022/06/11 05:43:14;;;;;;;0.90;0.90;;;;;;;15.14;89.22;96165.88;4348018;32;20189;-61
2022/06/11 05:45:54;;;;;;;0.67;0.67;;;;;;;15.24;88.58;96165.63;4355111;32;20225;-61
2022/06/11 05:48:24;;;;;;;0.97;0.97;;;;;;;15.28;88.04;96163.94;4362418;32;20271;-61
2022/06/11 05:50:52;;;;;;;0.50;0.50;;;;;;;15.37;87.52;96167.50;4365963;32;20188;-61
2022/06/11 05:53:22;;;;;;;0.80;0.80;;;;;;;15.45;87.60;96166.75;4352431;32;20212;-61
2022/06/11 05:55:49;;;;;;;0.90;0.67;;;;;;;15.51;87.61;96162.09;4335888;32;20273;-61
2022/06/11 05:58:20;;;;;;;1.43;1.40;;;;;;;15.56;86.28;96166.56;4331308;32;20201;-61
2022/06/11 06:00:47;;;;;;;0.40;0.40;;;;;;;15.78;85.74;96170.03;4344901;32;20201;-61
2022/06/11 06:03:12;;;;;;;0.63;0.63;;;;;;;15.85;86.73;96169.56;4331117;32;20185;-61
2022/06/11 06:05:39;;;;;;;0.57;0.57;;;;;;;15.87;87.34;96171.94;4345544;32;20208;-62
2022/06/11 06:08:07;;;;;;;0.60;0.60;;;;;;;15.92;86.85;96169.16;4343952;32;20232;-61
2022/06/11 06:10:34;;;;;;;0.90;0.90;;;;;;;16.02;86.42;96158.16;4348086;32;20235;-61
2022/06/11 06:13:00;;;;;;;0.40;0.40;;;;;;;16.10;85.68;96162.78;4343636;32;20221;-61
2022/06/11 06:15:30;;;;;;;0.70;0.70;;;;;;;16.13;84.83;96164.84;4343738;32;20322;-61
2022/06/11 06:17:56;;;;;;;0.70;0.70;;;;;;;16.24;85.72;96168.84;4348931;32;20193;-61
2022/06/11 06:20:24;;;;;;;0.77;0.77;;;;;;;16.34;86.13;96170.47;4344138;32;20208;-61
2022/06/11 06:22:50;;;;;;;3.97;1.30;;;;;;;16.49;84.46;96170.84;4342776;32;20282;-61
2022/06/11 06:25:19;;;;;;;0.93;0.93;;;;;;;16.63;83.76;96167.25;4344405;32;20263;-61
2022/06/11 06:27:47;;;;;;;1.03;0.93;;;;;;;16.68;82.87;96169.81;4344293;32;20209;-61
2022/06/11 06:30:14;;;;;;;0.77;0.77;;;;;;;16.79;83.36;96171.12;4354133;32;20197;-60
2022/06/11 06:32:41;;;;;;;1.47;0.63;;;;;;;16.92;83.00;96174.78;4331317;32;20197;-61
2022/06/11 06:35:08;;;;;;;0.70;0.70;;;;;;;17.00;83.29;96177.50;4344657;32;20235;-61
2022/06/11 06:37:34;;;;;;;8.13;1.03;;;;;;;17.14;82.92;96172.78;4331516;33;20193;-61
2022/06/11 06:40:00;;;;;;;0.83;0.83;;;;;;;17.14;80.14;96180.81;4350247;32;20208;-61
2022/06/11 06:42:27;;;;;;;0.60;0.60;;;;;;;17.31;80.38;96176.56;4333877;32;20265;-61
2022/06/11 06:44:55;;;;;;;0.87;0.87;;;;;;;17.51;81.30;96173.25;4346925;32;20213;-60
2022/06/11 06:47:22;;;;;;;0.80;0.80;;;;;;;17.49;77.36;96178.16;4343523;32;20202;-61
2022/06/11 06:49:49;;;;;;;0.30;0.30;;;;;;;17.42;78.34;96178.62;4344752;32;20201;-61
2022/06/11 06:52:15;;;;;;;0.60;0.60;;;;;;;17.47;77.33;96180.34;4364095;32;20188;-61
2022/06/11 06:54:41;;;;;;;0.80;0.80;;;;;;;17.71;75.77;96179.91;4372373;32;20196;-61
2022/06/11 06:57:06;;;;;;;1.07;1.07;;;;;;;17.90;76.23;96179.56;4347855;32;20184;-61
2022/06/11 06:59:33;;;;;;;0.63;0.63;;;;;;;17.81;74.75;96179.59;4376296;32;20184;-61
2022/06/11 07:01:59;;;;;;;0.43;0.43;;;;;;;18.00;74.46;96180.03;4359148;32;20189;-61
2022/06/11 07:04:26;;;;;;;3.60;0.60;;;;;;;18.15;72.93;96170.66;4359120;32;20211;-61
2022/06/11 07:06:53;;;;;;;0.70;0.70;;;;;;;18.49;72.26;96167.09;4346915;32;20247;-61
2022/06/11 07:09:20;;;;;;;0.43;0.43;;;;;;;18.62;72.54;96170.69;4358055;32;20263;-61
2022/06/11 07:11:45;;;;;;;0.33;0.33;;;;;;;18.67;71.27;96170.53;4358361;32;20200;-61
2022/06/11 07:14:11;;;;;;;0.77;0.77;;;;;;;18.87;70.23;96178.62;4362811;32;20192;-61
2022/06/11 07:16:45;;;;;;;0.33;0.33;;;;;;;19.05;70.44;96175.84;4350068;32;20189;-63
2022/06/11 07:19:17;;;;;;;0.47;0.47;;;;;;;19.34;67.83;96175.78;4356796;32;20200;-61
2022/06/11 07:21:48;;;;;;;0.60;0.60;;;;;;;19.32;68.10;96174.56;4359216;32;20215;-61
2022/06/11 07:24:24;;;;;;;0.70;0.70;;;;;;;19.34;66.06;96175.78;4345745;32;20219;-61
2022/06/11 07:26:54;;;;;;;0.40;0.40;;;;;;;19.07;70.01;96179.78;4356952;32;20216;-61
2022/06/11 07:29:24;;;;;;;3.93;1.40;;;;;;;18.99;70.43;96175.22;4345839;32;20197;-61
2022/06/11 07:31:56;;;;;;;0.70;0.70;;;;;;;18.93;68.89;96179.22;4357542;32;20204;-61
2022/06/11 07:34:22;;;;;;;0.57;0.57;;;;;;;18.98;66.83;96176.34;4359411;32;20197;-61
2022/06/11 07:36:48;;;;;;;0.60;0.60;;;;;;;19.07;65.76;96177.09;4345198;32;20204;-61
2022/06/11 07:39:15;;;;;;;0.50;0.50;;;;;;;19.17;65.88;96179.38;4344871;32;20197;-61
2022/06/11 07:41:41;;;;;;;0.30;0.30;;;;;;;19.26;64.51;96175.84;4348241;32;20216;-61
2022/06/11 07:44:06;;;;;;;0.50;0.50;;;;;;;19.23;64.97;96175.41;4364722;32;20185;-63
2022/06/11 07:46:33;;;;;;;0.93;0.93;;;;;;;19.33;66.31;96168.06;4356685;32;20302;-61
2022/06/11 07:49:00;;;;;;;0.30;0.30;;;;;;;19.33;64.05;96173.44;4346450;32;20204;-61
2022/06/11 07:51:25;;;;;;;1.53;1.53;;;;;;;19.38;63.92;96170.53;4349440;32;20200;-61
2022/06/11 07:53:51;;;;;;;1.70;1.40;;;;;;;19.40;66.58;96173.69;4369729;32;20185;-61
2022/06/11 07:56:17;;;;;;;0.50;0.50;;;;;;;19.45;65.81;96166.22;4359462;32;20279;-61
2022/06/11 07:58:43;;;;;;;0.97;0.60;;;;;;;19.53;64.09;96172.69;4357417;32;20243;-61
2022/06/11 08:01:08;;;;;;;1.03;1.03;;;;;;;19.59;65.87;96165.97;4355811;32;20193;-61
2022/06/11 08:03:38;;;;;;;0.60;0.60;;;;;;;19.64;65.31;96167.66;4365505;32;20209;-61
2022/06/11 08:06:08;;;;;;;0.60;0.60;;;;;;;19.73;62.90;96171.09;4348321;32;20287;-61
2022/06/11 08:08:35;;;;;;;0.57;0.57;;;;;;;19.75;64.79;96166.91;4354876;32;20251;-61
2022/06/11 08:11:06;;;;;;;0.53;0.53;;;;;;;19.79;64.59;96170.53;4343682;32;20199;-60
2022/06/11 08:13:33;;;;;;;0.50;0.50;;;;;;;19.79;65.17;96170.53;4361065;32;20189;-60
2022/06/11 08:16:01;;;;;;;0.37;0.37;;;;;;;19.82;64.45;96172.56;4373137;32;20264;-60
2022/06/11 08:18:29;;;;;;;0.60;0.60;;;;;;;19.84;62.08;96166.84;4359622;32;20294;-60
2022/06/11 08:20:56;;;;;;;0.30;0.30;;;;;;;19.88;62.70;96171.25;4373008;32;20189;-60
2022/06/11 08:23:24;;;;;;;1.17;1.17;;;;;;;19.88;60.51;96167.78;4360276;32;20207;-60
2022/06/11 08:25:52;;;;;;;0.50;0.50;;;;;;;19.84;62.85;96170.34;4373477;32;20212;-60
2022/06/11 08:28:20;;;;;;;0.53;0.53;;;;;;;19.87;62.13;96172.38;4373021;32;20205;-60
2022/06/11 08:30:48;;;;;;;0.63;0.63;;;;;;;19.89;62.50;96167.44;4373366;32;20203;-60
2022/06/11 08:33:15;;;;;;;0.43;0.43;;;;;;;19.92;63.25;96167.91;4373203;32;20177;-60
2022/06/11 08:35:42;;;;;;;0.90;0.90;;;;;;;20.00;64.13;96169.69;4362170;32;20197;-61
2022/06/11 08:38:07;;;;;;;0.70;0.67;;;;;;;20.00;61.81;96175.87;4362548;32;20184;-61
2022/06/11 08:40:53;;;;;;;1.10;1.10;;;;;;;20.02;59.39;96172.84;4364165;32;20204;-60
2022/06/11 08:43:50;;;;;;;0.70;0.70;;;;;;;20.03;59.70;96174.44;4362556;32;20185;-60
2022/06/11 08:46:18;;;;;;;2.17;0.87;;;;;;;20.04;58.96;96165.22;4376626;32;20199;-61
2022/06/11 08:49:08;;;;;;;0.83;0.83;;;;;;;20.20;59.38;96172.34;4362205;32;20192;-61
2022/06/11 08:51:36;;;;;;;0.53;0.53;;;;;;;20.21;60.03;96178.50;4376171;32;20185;-60
2022/06/11 08:54:10;;;;;;;0.37;0.37;;;;;;;20.19;58.71;96168.06;4369794;32;20199;-61
2022/06/11 08:56:54;;;;;;;0.80;0.80;;;;;;;20.21;59.04;96167.75;4375970;32;20227;-62
2022/06/11 08:59:50;;;;;;;0.63;0.63;;;;;;;20.21;59.85;96165.84;4375901;32;20188;-61
2022/06/11 09:02:49;;;;;;;7.50;0.73;;;;;;;20.28;59.77;96165.28;4362713;32;20189;-61
2022/06/11 09:05:33;;;;;;;0.30;0.30;;;;;;;20.36;59.60;96166.31;4340782;32;20236;-61
2022/06/11 09:08:23;;;;;;;0.37;0.37;;;;;;;20.43;57.77;96161.97;4363227;32;20424;-61
2022/06/11 09:10:48;;;;;;;0.50;0.50;;;;;;;20.41;57.56;96153.44;4375703;32;20200;-61
2022/06/11 09:13:34;;;;;;;1.07;0.97;;;;;;;20.45;58.88;96164.31;4374876;32;20200;-61
2022/06/11 09:16:27;;;;;;;0.77;0.77;;;;;;;20.44;57.77;96163.53;4362049;32;20200;-61
2022/06/11 09:19:01;;;;;;;0.40;0.40;;;;;;;20.45;59.58;96154.34;4361297;32;20249;-60
2022/06/11 09:21:49;;;;;;;0.43;0.43;;;;;;;20.49;58.12;96157.16;4375362;32;22022;-60
2022/06/11 09:24:54;;;;;;;0.83;0.83;;;;;;;20.59;58.63;96160.19;4361451;32;20197;-60
2022/06/11 09:27:36;;;;;;;1.03;0.73;;;;;;;20.60;56.51;96150.19;4314631;33;20217;-60
2022/06/11 09:30:12;;;;;;;0.57;0.57;;;;;;;20.67;57.70;96152.31;4371552;32;20200;-60
2022/06/11 09:33:13;;;;;;;0.63;0.63;;;;;;;20.73;54.74;96162.56;4373995;32;20188;-61
2022/06/11 09:35:44;;;;;;;0.90;0.83;;;;;;;20.81;55.33;96152.75;4357408;32;20189;-61
2022/06/11 09:38:16;;;;;;;0.67;0.67;;;;;;;20.90;55.74;96154.22;4371613;32;20200;-60
2022/06/11 09:40:50;;;;;;;0.50;0.50;;;;;;;21.01;53.59;96154.53;4361362;32;20196;-60
2022/06/11 09:43:42;;;;;;;0.40;0.40;;;;;;;21.03;54.14;96152.28;4362490;32;20256;-60
2022/06/11 09:46:44;;;;;;;1.07;1.07;;;;;;;21.14;56.01;96155.31;4373295;32;20207;-60
2022/06/11 09:49:50;;;;;;;0.30;0.30;;;;;;;21.41;54.47;96151.91;4360469;32;20207;-62
2022/06/11 09:52:21;;;;;;;0.30;0.30;;;;;;;21.61;54.64;96153.63;4355402;32;20189;-61
2022/06/11 09:54:53;;;;;;;0.43;0.43;;;;;;;21.51;53.56;96153.34;4375742;32;20192;-61
2022/06/11 09:57:36;;;;;;;0.50;0.50;;;;;;;21.43;53.17;96149.66;4360942;32;20245;-61
2022/06/11 10:00:26;;;;;;;0.47;0.47;;;;;;;21.28;54.83;96147.66;4369884;32;20237;-61
2022/06/11 10:05:57;;;;;;;0.60;0.60;;;;;;;21.09;53.62;96150.94;4370255;32;20192;-61
2022/06/11 10:08:43;;;;;;;0.73;0.73;;;;;;;21.22;53.33;96149.03;4372863;32;20193;-61
2022/06/11 10:11:22;;;;;;;0.60;0.60;;;;;;;21.14;54.24;96153.41;4372055;32;20201;-61
2022/06/11 10:14:37;;;;;;;0.77;0.77;;;;;;;21.06;54.99;96150.84;4361731;32;20192;-61
2022/06/11 10:17:13;;;;;;;0.57;0.57;;;;;;;21.06;53.54;96157.00;4362139;32;20240;-61
2022/06/11 10:20:04;;;;;;;0.60;0.60;;;;;;;20.97;54.83;96153.66;4373284;32;20212;-61
2022/06/11 10:22:58;;;;;;;0.30;0.30;;;;;;;20.91;55.02;96149.63;4360994;32;20197;-61
2022/06/11 10:25:40;;;;;;;0.60;0.60;;;;;;;21.03;54.16;96156.91;4374657;32;20196;-61
2022/06/11 10:28:23;;;;;;;1.13;0.60;;;;;;;21.05;53.36;96150.03;4375251;32;20211;-60
2022/06/11 10:30:56;;;;;;;0.63;0.53;;;;;;;21.06;53.77;96150.84;4374496;32;20238;-61
2022/06/11 10:33:41;;;;;;;1.17;0.43;;;;;;;21.03;53.18;96155.00;4361038;32;20196;-61
2022/06/11 10:36:34;;;;;;;0.40;0.40;;;;;;;21.00;52.10;96150.25;4374417;32;20196;-61
2022/06/11 10:39:18;;;;;;;0.30;0.30;;;;;;;20.99;51.52;96151.37;4373969;32;20196;-61
2022/06/11 10:42:14;;;;;;;0.10;0.10;;;;;;;20.90;53.91;96150.75;4374458;32;20188;-61
2022/06/11 10:44:47;;;;;;;0.27;0.27;;;;;;;20.98;53.21;96147.16;4345947;32;20196;-61
2022/06/11 10:47:37;;;;;;;0.40;0.40;;;;;;;20.96;53.53;96149.41;4359600;32;20197;-61
2022/06/11 10:50:11;;;;;;;0.50;0.50;;;;;;;20.95;53.90;96155.91;4373817;32;20207;-61
2022/06/11 10:52:48;;;;;;;0.47;0.47;;;;;;;21.06;53.18;96146.22;4374576;32;20222;-61
2022/06/11 10:55:27;;;;;;;0.60;0.60;;;;;;;21.11;52.74;96151.37;4372926;32;20196;-61
2022/06/11 10:57:54;;;;;;;0.50;0.50;;;;;;;21.02;53.63;96148.03;4360330;32;20204;-61
2022/06/11 11:00:35;;;;;;;0.60;0.60;;;;;;;21.05;51.85;96147.34;4374459;32;20196;-61
2022/06/11 11:03:12;;;;;;;0.67;0.67;;;;;;;21.11;51.38;96139.81;4367924;32;20185;-61
2022/06/11 11:05:55;;;;;;;0.37;0.37;;;;;;;21.22;51.07;96139.00;4381635;32;20188;-63
2022/06/11 11:08:21;;;;;;;1.53;0.40;;;;;;;21.35;51.74;96137.09;4360484;32;20192;-60
2022/06/11 11:10:50;;;;;;;0.50;0.50;;;;;;;21.47;51.89;96138.94;4360893;32;20235;-60
2022/06/11 11:13:27;;;;;;;0.63;0.63;;;;;;;21.55;53.05;96143.44;4373713;32;20193;-61
2022/06/11 11:16:17;;;;;;;0.53;0.53;;;;;;;21.62;52.94;96125.50;4366159;32;20207;-60
2022/06/11 11:18:53;;;;;;;0.70;0.70;;;;;;;21.65;51.54;96126.72;4377894;32;20211;-60
2022/06/11 11:21:28;;;;;;;0.57;0.57;;;;;;;21.70;51.20;96126.50;4374192;32;20239;-61
2022/06/11 11:23:58;;;;;;;0.40;0.40;;;;;;;21.76;49.87;96129.72;4360722;32;20227;-61
2022/06/11 11:26:41;;;;;;;0.67;0.67;;;;;;;21.88;49.80;96132.38;4360441;32;20193;-60
2022/06/11 11:29:21;;;;;;;0.93;0.93;;;;;;;21.90;50.17;96119.28;4360369;32;20207;-60
2022/06/11 11:31:57;;;;;;;1.07;1.07;;;;;;;21.91;50.14;96123.56;4360098;32;20263;-60
2022/06/11 11:34:33;;;;;;;0.47;0.47;;;;;;;21.93;49.43;96122.09;4360662;32;20184;-60
2022/06/11 11:37:25;;;;;;;0.20;0.20;;;;;;;21.95;48.55;96122.53;4360143;32;20264;-61
2022/06/11 11:39:56;;;;;;;0.50;0.50;;;;;;;21.92;49.28;96123.22;4370956;32;20192;-61
2022/06/11 11:42:36;;;;;;;0.40;0.40;;;;;;;21.87;48.83;96123.47;4374090;32;20188;-61
2022/06/11 11:45:27;;;;;;;0.30;0.30;;;;;;;21.79;49.06;96121.72;4373326;32;20215;-61
2022/06/11 11:48:05;;;;;;;1.63;0.60;;;;;;;21.82;50.75;96121.00;4366758;32;20211;-61
2022/06/11 11:50:39;;;;;;;0.60;0.60;;;;;;;21.81;49.84;96121.37;4373714;32;20248;-61
2022/06/11 11:53:21;;;;;;;0.47;0.47;;;;;;;21.85;49.70;96117.62;4361639;32;20201;-61
2022/06/11 11:56:14;;;;;;;0.50;0.50;;;;;;;21.98;48.20;96120.28;4359626;32;20219;-61
2022/06/11 11:58:49;;;;;;;0.40;0.40;;;;;;;21.90;49.36;96116.59;4347609;32;20219;-61
2022/06/11 12:01:18;;;;;;;0.63;0.63;;;;;;;21.85;48.13;96119.53;4374026;32;20200;-61
2022/06/11 12:03:47;;;;;;;4.20;0.80;;;;;;;21.73;48.51;96119.63;4358373;32;20263;-61
2022/06/11 12:06:24;;;;;;;0.30;0.30;;;;;;;21.70;48.04;96115.69;4359763;32;20246;-60
2022/06/11 12:08:53;;;;;;;0.77;0.77;;;;;;;21.72;48.94;96113.44;4360059;32;20203;-61